sensor_id;sensor_type;location;lat;lon;timestamp;temperature;humidity
43884;DHT22;29544;52.018;5.810;2023-02-28T00:00:10;19.10;38.60
43884;DHT22;29544;52.018;5.810;2023-02-28T00:02:40;19.10;38.70
43884;DHT22;29544;52.018;5.810;2023-02-28T00:05:07;19.10;38.70
43884;DHT22;29544;52.018;5.810;2023-02-28T00:07:33;19.00;38.80
43884;DHT22;29544;52.018;5.810;2023-02-28T00:09:59;18.90;38.80
43884;DHT22;29544;52.018;5.810;2023-02-28T00:12:25;18.90;38.90
43884;DHT22;29544;52.018;5.810;2023-02-28T00:14:51;18.80;38.90
43884;DHT22;29544;52.018;5.810;2023-02-28T00:17:16;18.80;39.00
43884;DHT22;29544;52.018;5.810;2023-02-28T00:19:49;18.70;39.00
43884;DHT22;29544;52.018;5.810;2023-02-28T00:22:20;18.70;39.10
43884;DHT22;29544;52.018;5.810;2023-02-28T00:24:46;18.60;39.10
43884;DHT22;29544;52.018;5.810;2023-02-28T00:27:12;18.60;39.20
43884;DHT22;29544;52.018;5.810;2023-02-28T00:29:38;18.50;39.20
43884;DHT22;29544;52.018;5.810;2023-02-28T00:32:04;18.50;39.30
43884;DHT22;29544;52.018;5.810;2023-02-28T00:34:30;18.40;39.30
43884;DHT22;29544;52.018;5.810;2023-02-28T00:36:56;18.40;39.40
43884;DHT22;29544;52.018;5.810;2023-02-28T00:39:21;18.30;39.40
43884;DHT22;29544;52.018;5.810;2023-02-28T00:41:47;18.30;39.40
43884;DHT22;29544;52.018;5.810;2023-02-28T00:44:13;18.30;39.50
43884;DHT22;29544;52.018;5.810;2023-02-28T00:46:38;18.20;39.50
43884;DHT22;29544;52.018;5.810;2023-02-28T00:49:04;18.20;39.60
43884;DHT22;29544;52.018;5.810;2023-02-28T00:51:29;18.10;39.60
43884;DHT22;29544;52.018;5.810;2023-02-28T00:53:55;18.10;39.60
43884;DHT22;29544;52.018;5.810;2023-02-28T00:56:20;18.00;39.60
43884;DHT22;29544;52.018;5.810;2023-02-28T00:58:46;18.00;39.70
43884;DHT22;29544;52.018;5.810;2023-02-28T01:01:11;17.90;39.70
43884;DHT22;29544;52.018;5.810;2023-02-28T01:03:37;17.90;39.70
43884;DHT22;29544;52.018;5.810;2023-02-28T01:06:04;17.90;39.80
43884;DHT22;29544;52.018;5.810;2023-02-28T01:08:29;17.80;39.80
43884;DHT22;29544;52.018;5.810;2023-02-28T01:10:55;17.80;39.90
43884;DHT22;29544;52.018;5.810;2023-02-28T01:13:21;17.70;39.90
43884;DHT22;29544;52.018;5.810;2023-02-28T01:15:53;17.70;39.90
43884;DHT22;29544;52.018;5.810;2023-02-28T01:18:20;17.70;40.00
43884;DHT22;29544;52.018;5.810;2023-02-28T01:20:46;17.60;40.00
43884;DHT22;29544;52.018;5.810;2023-02-28T01:23:11;17.60;40.00
43884;DHT22;29544;52.018;5.810;2023-02-28T01:25:37;17.50;40.00
43884;DHT22;29544;52.018;5.810;2023-02-28T01:28:03;17.50;40.10
43884;DHT22;29544;52.018;5.810;2023-02-28T01:30:28;17.50;40.10
43884;DHT22;29544;52.018;5.810;2023-02-28T01:32:54;17.40;40.20
43884;DHT22;29544;52.018;5.810;2023-02-28T01:35:20;17.40;40.20
43884;DHT22;29544;52.018;5.810;2023-02-28T01:37:45;17.40;40.20
43884;DHT22;29544;52.018;5.810;2023-02-28T01:40:12;17.30;40.10
43884;DHT22;29544;52.018;5.810;2023-02-28T01:42:37;17.30;40.20
43884;DHT22;29544;52.018;5.810;2023-02-28T01:45:41;17.20;40.90
43884;DHT22;29544;52.018;5.810;2023-02-28T01:48:08;17.20;40.30
43884;DHT22;29544;52.018;5.810;2023-02-28T01:50:40;17.20;40.30
43884;DHT22;29544;52.018;5.810;2023-02-28T01:53:10;17.10;40.30
43884;DHT22;29544;52.018;5.810;2023-02-28T01:55:37;17.10;40.40
43884;DHT22;29544;52.018;5.810;2023-02-28T01:58:06;17.10;40.40
43884;DHT22;29544;52.018;5.810;2023-02-28T02:00:32;17.00;40.40
43884;DHT22;29544;52.018;5.810;2023-02-28T02:03:00;17.00;40.50
43884;DHT22;29544;52.018;5.810;2023-02-28T02:05:29;16.90;40.50
43884;DHT22;29544;52.018;5.810;2023-02-28T02:08:00;16.90;40.50
43884;DHT22;29544;52.018;5.810;2023-02-28T02:10:33;16.90;40.50
43884;DHT22;29544;52.018;5.810;2023-02-28T02:17:57;16.80;40.60
43884;DHT22;29544;52.018;5.810;2023-02-28T02:20:54;16.80;40.60
43884;DHT22;29544;52.018;5.810;2023-02-28T02:34:40;16.60;40.70
43884;DHT22;29544;52.018;5.810;2023-02-28T02:37:39;16.60;40.80
43884;DHT22;29544;52.018;5.810;2023-02-28T02:40:18;16.50;40.90
43884;DHT22;29544;52.018;5.810;2023-02-28T02:42:55;16.50;40.80
43884;DHT22;29544;52.018;5.810;2023-02-28T02:45:26;16.50;40.80
43884;DHT22;29544;52.018;5.810;2023-02-28T02:47:56;16.40;40.80
43884;DHT22;29544;52.018;5.810;2023-02-28T02:50:30;16.40;40.90
43884;DHT22;29544;52.018;5.810;2023-02-28T02:53:00;16.40;40.90
43884;DHT22;29544;52.018;5.810;2023-02-28T02:55:28;16.40;41.00
43884;DHT22;29544;52.018;5.810;2023-02-28T02:57:59;16.30;40.90
43884;DHT22;29544;52.018;5.810;2023-02-28T03:00:30;16.30;40.90
43884;DHT22;29544;52.018;5.810;2023-02-28T03:02:59;16.30;41.00
43884;DHT22;29544;52.018;5.810;2023-02-28T03:05:34;16.30;41.00
43884;DHT22;29544;52.018;5.810;2023-02-28T03:08:03;16.20;41.00
43884;DHT22;29544;52.018;5.810;2023-02-28T03:11:05;16.20;41.00
43884;DHT22;29544;52.018;5.810;2023-02-28T03:13:42;16.20;41.00
43884;DHT22;29544;52.018;5.810;2023-02-28T03:22:24;16.10;41.10
43884;DHT22;29544;52.018;5.810;2023-02-28T03:30:14;16.00;41.20
43884;DHT22;29544;52.018;5.810;2023-02-28T03:32:55;16.00;41.20
43884;DHT22;29544;52.018;5.810;2023-02-28T03:35:26;16.00;41.30
43884;DHT22;29544;52.018;5.810;2023-02-28T03:37:59;16.00;41.30
43884;DHT22;29544;52.018;5.810;2023-02-28T03:40:30;15.90;41.20
43884;DHT22;29544;52.018;5.810;2023-02-28T03:43:01;15.90;41.30
43884;DHT22;29544;52.018;5.810;2023-02-28T03:45:30;15.90;41.30
43884;DHT22;29544;52.018;5.810;2023-02-28T03:48:28;15.90;41.30
43884;DHT22;29544;52.018;5.810;2023-02-28T03:50:57;15.80;41.30
43884;DHT22;29544;52.018;5.810;2023-02-28T03:53:47;15.80;41.30
43884;DHT22;29544;52.018;5.810;2023-02-28T03:56:23;15.80;41.40
43884;DHT22;29544;52.018;5.810;2023-02-28T03:59:06;15.80;41.40
43884;DHT22;29544;52.018;5.810;2023-02-28T04:01:40;15.80;41.40
43884;DHT22;29544;52.018;5.810;2023-02-28T04:04:08;15.70;41.40
43884;DHT22;29544;52.018;5.810;2023-02-28T04:06:34;15.70;41.40
43884;DHT22;29544;52.018;5.810;2023-02-28T04:09:01;15.70;41.50
43884;DHT22;29544;52.018;5.810;2023-02-28T04:11:34;15.70;41.50
43884;DHT22;29544;52.018;5.810;2023-02-28T04:14:04;15.60;41.50
43884;DHT22;29544;52.018;5.810;2023-02-28T04:16:31;15.60;42.10
43884;DHT22;29544;52.018;5.810;2023-02-28T04:18:56;15.60;41.50
43884;DHT22;29544;52.018;5.810;2023-02-28T04:21:31;15.60;41.50
43884;DHT22;29544;52.018;5.810;2023-02-28T04:23:57;15.60;41.60
43884;DHT22;29544;52.018;5.810;2023-02-28T04:26:36;15.50;41.60
43884;DHT22;29544;52.018;5.810;2023-02-28T04:29:05;15.50;41.60
43884;DHT22;29544;52.018;5.810;2023-02-28T04:31:33;15.50;41.60
43884;DHT22;29544;52.018;5.810;2023-02-28T04:33:59;15.50;41.60
43884;DHT22;29544;52.018;5.810;2023-02-28T04:36:25;15.50;41.60
43884;DHT22;29544;52.018;5.810;2023-02-28T04:38:50;15.40;41.60
43884;DHT22;29544;52.018;5.810;2023-02-28T04:41:16;15.40;41.70
43884;DHT22;29544;52.018;5.810;2023-02-28T04:43:42;15.40;41.70
43884;DHT22;29544;52.018;5.810;2023-02-28T04:46:08;15.40;41.70
43884;DHT22;29544;52.018;5.810;2023-02-28T04:48:36;15.40;41.70
43884;DHT22;29544;52.018;5.810;2023-02-28T04:51:05;15.40;41.70
43884;DHT22;29544;52.018;5.810;2023-02-28T04:53:31;15.40;41.80
43884;DHT22;29544;52.018;5.810;2023-02-28T04:55:57;15.30;41.70
43884;DHT22;29544;52.018;5.810;2023-02-28T04:58:22;15.30;41.80
43884;DHT22;29544;52.018;5.810;2023-02-28T05:00:49;15.30;41.80
43884;DHT22;29544;52.018;5.810;2023-02-28T05:03:15;15.30;41.90
43884;DHT22;29544;52.018;5.810;2023-02-28T05:05:40;15.20;41.80
43884;DHT22;29544;52.018;5.810;2023-02-28T05:08:06;15.20;41.80
43884;DHT22;29544;52.018;5.810;2023-02-28T05:10:31;15.20;41.90
43884;DHT22;29544;52.018;5.810;2023-02-28T05:12:57;15.20;41.90
43884;DHT22;29544;52.018;5.810;2023-02-28T05:15:24;15.20;41.90
43884;DHT22;29544;52.018;5.810;2023-02-28T05:17:50;15.20;41.90
43884;DHT22;29544;52.018;5.810;2023-02-28T05:20:15;15.10;41.90
43884;DHT22;29544;52.018;5.810;2023-02-28T05:22:42;15.10;41.90
43884;DHT22;29544;52.018;5.810;2023-02-28T05:25:12;15.20;42.00
43884;DHT22;29544;52.018;5.810;2023-02-28T05:27:38;15.10;41.90
43884;DHT22;29544;52.018;5.810;2023-02-28T05:30:05;15.10;42.00
43884;DHT22;29544;52.018;5.810;2023-02-28T05:32:31;15.10;42.00
43884;DHT22;29544;52.018;5.810;2023-02-28T05:34:56;15.10;42.00
43884;DHT22;29544;52.018;5.810;2023-02-28T05:37:22;15.10;42.00
43884;DHT22;29544;52.018;5.810;2023-02-28T05:39:47;15.10;42.00
43884;DHT22;29544;52.018;5.810;2023-02-28T05:42:13;15.00;42.00
43884;DHT22;29544;52.018;5.810;2023-02-28T05:44:39;15.00;42.00
43884;DHT22;29544;52.018;5.810;2023-02-28T05:47:04;15.00;42.10
43884;DHT22;29544;52.018;5.810;2023-02-28T05:49:30;15.00;42.10
43884;DHT22;29544;52.018;5.810;2023-02-28T05:51:55;15.00;42.10
43884;DHT22;29544;52.018;5.810;2023-02-28T05:54:21;14.90;42.10
43884;DHT22;29544;52.018;5.810;2023-02-28T05:56:46;14.90;42.10
43884;DHT22;29544;52.018;5.810;2023-02-28T05:59:12;14.90;42.10
43884;DHT22;29544;52.018;5.810;2023-02-28T06:01:40;14.90;42.20
43884;DHT22;29544;52.018;5.810;2023-02-28T06:04:08;14.90;42.20
43884;DHT22;29544;52.018;5.810;2023-02-28T06:06:35;14.90;42.20
43884;DHT22;29544;52.018;5.810;2023-02-28T06:09:01;14.90;42.20
43884;DHT22;29544;52.018;5.810;2023-02-28T06:11:27;14.90;42.20
43884;DHT22;29544;52.018;5.810;2023-02-28T06:13:54;14.80;42.20
43884;DHT22;29544;52.018;5.810;2023-02-28T06:16:20;14.80;42.20
43884;DHT22;29544;52.018;5.810;2023-02-28T06:18:46;14.80;42.20
43884;DHT22;29544;52.018;5.810;2023-02-28T06:21:12;14.80;42.30
43884;DHT22;29544;52.018;5.810;2023-02-28T06:23:38;14.80;42.30
43884;DHT22;29544;52.018;5.810;2023-02-28T06:26:04;14.80;42.30
43884;DHT22;29544;52.018;5.810;2023-02-28T06:28:30;14.80;42.40
43884;DHT22;29544;52.018;5.810;2023-02-28T06:30:55;14.70;42.30
43884;DHT22;29544;52.018;5.810;2023-02-28T06:33:21;14.70;43.00
43884;DHT22;29544;52.018;5.810;2023-02-28T06:35:50;14.70;42.30
43884;DHT22;29544;52.018;5.810;2023-02-28T06:38:15;14.70;42.40
43884;DHT22;29544;52.018;5.810;2023-02-28T06:40:41;14.70;42.40
43884;DHT22;29544;52.018;5.810;2023-02-28T06:43:06;14.70;42.40
43884;DHT22;29544;52.018;5.810;2023-02-28T06:45:32;14.70;42.40
43884;DHT22;29544;52.018;5.810;2023-02-28T06:47:58;14.60;42.40
43884;DHT22;29544;52.018;5.810;2023-02-28T06:50:25;14.60;42.40
43884;DHT22;29544;52.018;5.810;2023-02-28T06:52:52;14.60;42.40
43884;DHT22;29544;52.018;5.810;2023-02-28T06:55:19;14.60;42.50
43884;DHT22;29544;52.018;5.810;2023-02-28T06:57:45;14.60;42.50
43884;DHT22;29544;52.018;5.810;2023-02-28T07:00:11;14.60;42.50
43884;DHT22;29544;52.018;5.810;2023-02-28T07:02:37;14.60;42.50
43884;DHT22;29544;52.018;5.810;2023-02-28T07:05:04;14.60;42.50
43884;DHT22;29544;52.018;5.810;2023-02-28T07:07:29;14.50;42.50
43884;DHT22;29544;52.018;5.810;2023-02-28T07:09:55;14.60;42.60
43884;DHT22;29544;52.018;5.810;2023-02-28T07:12:21;14.50;42.50
43884;DHT22;29544;52.018;5.810;2023-02-28T07:14:47;14.50;42.60
43884;DHT22;29544;52.018;5.810;2023-02-28T07:17:12;14.50;42.60
43884;DHT22;29544;52.018;5.810;2023-02-28T07:19:39;14.50;42.60
43884;DHT22;29544;52.018;5.810;2023-02-28T07:22:05;14.50;43.20
43884;DHT22;29544;52.018;5.810;2023-02-28T07:24:30;14.50;42.60
43884;DHT22;29544;52.018;5.810;2023-02-28T07:26:56;14.50;42.70
43884;DHT22;29544;52.018;5.810;2023-02-28T07:29:22;14.40;42.60
43884;DHT22;29544;52.018;5.810;2023-02-28T07:31:48;14.50;42.70
43884;DHT22;29544;52.018;5.810;2023-02-28T07:34:15;14.40;42.70
43884;DHT22;29544;52.018;5.810;2023-02-28T07:36:41;14.50;42.70
43884;DHT22;29544;52.018;5.810;2023-02-28T07:39:06;14.40;42.70
43884;DHT22;29544;52.018;5.810;2023-02-28T07:41:34;14.40;42.70
43884;DHT22;29544;52.018;5.810;2023-02-28T07:44:04;14.40;42.70
43884;DHT22;29544;52.018;5.810;2023-02-28T07:46:30;14.40;42.70
43884;DHT22;29544;52.018;5.810;2023-02-28T07:49:00;14.40;42.70
43884;DHT22;29544;52.018;5.810;2023-02-28T07:51:28;14.40;42.70
43884;DHT22;29544;52.018;5.810;2023-02-28T07:53:54;14.30;42.70
43884;DHT22;29544;52.018;5.810;2023-02-28T07:56:19;14.30;42.80
43884;DHT22;29544;52.018;5.810;2023-02-28T07:58:45;14.30;42.90
43884;DHT22;29544;52.018;5.810;2023-02-28T08:01:11;14.30;43.00
43884;DHT22;29544;52.018;5.810;2023-02-28T08:03:38;14.30;43.00
43884;DHT22;29544;52.018;5.810;2023-02-28T08:06:05;14.30;43.10
43884;DHT22;29544;52.018;5.810;2023-02-28T08:08:31;14.30;43.10
43884;DHT22;29544;52.018;5.810;2023-02-28T08:11:01;14.30;43.10
43884;DHT22;29544;52.018;5.810;2023-02-28T08:13:27;14.30;43.20
43884;DHT22;29544;52.018;5.810;2023-02-28T08:15:53;14.30;43.40
43884;DHT22;29544;52.018;5.810;2023-02-28T08:18:20;14.30;43.40
43884;DHT22;29544;52.018;5.810;2023-02-28T08:20:45;14.30;43.70
43884;DHT22;29544;52.018;5.810;2023-02-28T08:23:11;14.40;43.70
43884;DHT22;29544;52.018;5.810;2023-02-28T08:25:36;14.40;43.70
43884;DHT22;29544;52.018;5.810;2023-02-28T08:28:02;14.50;43.90
43884;DHT22;29544;52.018;5.810;2023-02-28T08:30:27;14.50;43.90
43884;DHT22;29544;52.018;5.810;2023-02-28T08:32:53;14.50;43.90
43884;DHT22;29544;52.018;5.810;2023-02-28T08:35:19;14.60;43.90
43884;DHT22;29544;52.018;5.810;2023-02-28T08:37:48;14.60;43.80
43884;DHT22;29544;52.018;5.810;2023-02-28T08:40:14;14.60;43.70
43884;DHT22;29544;52.018;5.810;2023-02-28T08:42:46;14.70;43.70
43884;DHT22;29544;52.018;5.810;2023-02-28T08:45:13;14.80;43.60
43884;DHT22;29544;52.018;5.810;2023-02-28T08:47:40;14.80;43.60
43884;DHT22;29544;52.018;5.810;2023-02-28T08:50:06;14.80;43.40
43884;DHT22;29544;52.018;5.810;2023-02-28T08:52:32;14.80;43.20
43884;DHT22;29544;52.018;5.810;2023-02-28T08:54:57;14.80;43.20
43884;DHT22;29544;52.018;5.810;2023-02-28T08:57:23;14.90;43.20
43884;DHT22;29544;52.018;5.810;2023-02-28T08:59:51;14.90;43.00
43884;DHT22;29544;52.018;5.810;2023-02-28T09:02:17;15.00;43.00
43884;DHT22;29544;52.018;5.810;2023-02-28T09:04:42;15.00;43.00
43884;DHT22;29544;52.018;5.810;2023-02-28T09:07:10;15.00;43.00
43884;DHT22;29544;52.018;5.810;2023-02-28T09:09:36;15.10;42.90
43884;DHT22;29544;52.018;5.810;2023-02-28T09:12:02;15.10;42.80
43884;DHT22;29544;52.018;5.810;2023-02-28T09:14:27;15.10;42.60
43884;DHT22;29544;52.018;5.810;2023-02-28T09:16:53;15.20;42.60
43884;DHT22;29544;52.018;5.810;2023-02-28T09:19:19;15.20;42.50
43884;DHT22;29544;52.018;5.810;2023-02-28T09:21:45;15.30;42.40
43884;DHT22;29544;52.018;5.810;2023-02-28T09:24:11;15.30;42.40
43884;DHT22;29544;52.018;5.810;2023-02-28T09:26:39;15.30;42.40
43884;DHT22;29544;52.018;5.810;2023-02-28T09:29:05;15.30;42.30
43884;DHT22;29544;52.018;5.810;2023-02-28T09:31:32;15.30;42.20
43884;DHT22;29544;52.018;5.810;2023-02-28T09:33:58;15.30;42.10
43884;DHT22;29544;52.018;5.810;2023-02-28T09:36:25;15.30;42.10
43884;DHT22;29544;52.018;5.810;2023-02-28T09:38:51;15.30;42.10
43884;DHT22;29544;52.018;5.810;2023-02-28T09:41:23;15.30;42.10
43884;DHT22;29544;52.018;5.810;2023-02-28T09:43:55;15.30;42.00
43884;DHT22;29544;52.018;5.810;2023-02-28T09:46:31;15.30;41.90
43884;DHT22;29544;52.018;5.810;2023-02-28T09:49:00;15.30;41.90
43884;DHT22;29544;52.018;5.810;2023-02-28T09:51:34;15.30;42.80
43884;DHT22;29544;52.018;5.810;2023-02-28T09:54:02;15.40;42.30
43884;DHT22;29544;52.018;5.810;2023-02-28T09:56:36;15.50;42.40
43884;DHT22;29544;52.018;5.810;2023-02-28T10:04:56;15.70;42.50
43884;DHT22;29544;52.018;5.810;2023-02-28T10:07:29;15.70;42.50
43884;DHT22;29544;52.018;5.810;2023-02-28T10:10:01;15.60;42.30
43884;DHT22;29544;52.018;5.810;2023-02-28T10:12:29;15.60;42.30
43884;DHT22;29544;52.018;5.810;2023-02-28T10:14:59;15.60;42.20
43884;DHT22;29544;52.018;5.810;2023-02-28T10:17:39;15.60;42.20
43884;DHT22;29544;52.018;5.810;2023-02-28T10:20:15;15.60;42.10
43884;DHT22;29544;52.018;5.810;2023-02-28T10:22:59;15.60;42.00
43884;DHT22;29544;52.018;5.810;2023-02-28T10:25:28;15.60;42.00
43884;DHT22;29544;52.018;5.810;2023-02-28T10:27:59;15.60;41.90
43884;DHT22;29544;52.018;5.810;2023-02-28T10:30:26;15.60;41.90
43884;DHT22;29544;52.018;5.810;2023-02-28T10:32:53;15.50;41.90
43884;DHT22;29544;52.018;5.810;2023-02-28T10:35:25;15.50;41.90
43884;DHT22;29544;52.018;5.810;2023-02-28T10:37:57;15.60;41.90
43884;DHT22;29544;52.018;5.810;2023-02-28T10:43:05;15.50;41.90
43884;DHT22;29544;52.018;5.810;2023-02-28T10:45:35;15.50;42.10
43884;DHT22;29544;52.018;5.810;2023-02-28T10:50:51;15.50;42.00
43884;DHT22;29544;52.018;5.810;2023-02-28T11:01:13;15.60;42.20
43884;DHT22;29544;52.018;5.810;2023-02-28T11:03:39;15.60;42.10
43884;DHT22;29544;52.018;5.810;2023-02-28T11:06:07;15.50;42.10
43884;DHT22;29544;52.018;5.810;2023-02-28T11:08:34;15.60;42.10
43884;DHT22;29544;52.018;5.810;2023-02-28T11:11:04;15.60;42.10
43884;DHT22;29544;52.018;5.810;2023-02-28T11:13:35;15.60;42.10
43884;DHT22;29544;52.018;5.810;2023-02-28T11:16:06;15.60;42.10
43884;DHT22;29544;52.018;5.810;2023-02-28T11:21:08;15.60;42.10
43884;DHT22;29544;52.018;5.810;2023-02-28T11:23:36;15.60;42.00
43884;DHT22;29544;52.018;5.810;2023-02-28T11:26:05;15.70;42.10
43884;DHT22;29544;52.018;5.810;2023-02-28T11:28:40;15.70;42.70
43884;DHT22;29544;52.018;5.810;2023-02-28T11:33:54;15.70;42.10
43884;DHT22;29544;52.018;5.810;2023-02-28T11:36:25;15.70;42.10
43884;DHT22;29544;52.018;5.810;2023-02-28T11:38:56;15.70;42.00
43884;DHT22;29544;52.018;5.810;2023-02-28T11:46:47;15.80;41.90
43884;DHT22;29544;52.018;5.810;2023-02-28T11:52:29;15.90;41.80
43884;DHT22;29544;52.018;5.810;2023-02-28T11:55:25;15.90;41.90
43884;DHT22;29544;52.018;5.810;2023-02-28T12:00:47;16.00;42.10
43884;DHT22;29544;52.018;5.810;2023-02-28T12:06:26;16.10;42.70
43884;DHT22;29544;52.018;5.810;2023-02-28T12:11:40;16.30;42.80
43884;DHT22;29544;52.018;5.810;2023-02-28T12:14:41;16.30;42.90
43884;DHT22;29544;52.018;5.810;2023-02-28T12:17:26;16.30;43.10
43884;DHT22;29544;52.018;5.810;2023-02-28T12:20:33;16.30;43.20
43884;DHT22;29544;52.018;5.810;2023-02-28T12:26:19;16.40;43.50
43884;DHT22;29544;52.018;5.810;2023-02-28T12:28:53;16.50;43.60
43884;DHT22;29544;52.018;5.810;2023-02-28T12:31:52;16.50;43.60
43884;DHT22;29544;52.018;5.810;2023-02-28T12:34:22;16.50;43.60
43884;DHT22;29544;52.018;5.810;2023-02-28T12:36:50;16.60;43.70
43884;DHT22;29544;52.018;5.810;2023-02-28T12:42:01;16.60;43.80
43884;DHT22;29544;52.018;5.810;2023-02-28T12:44:51;16.70;43.80
43884;DHT22;29544;52.018;5.810;2023-02-28T12:47:17;16.70;43.80
43884;DHT22;29544;52.018;5.810;2023-02-28T12:49:50;16.70;43.90
43884;DHT22;29544;52.018;5.810;2023-02-28T12:52:23;16.80;43.90
43884;DHT22;29544;52.018;5.810;2023-02-28T12:55:00;16.80;44.00
43884;DHT22;29544;52.018;5.810;2023-02-28T12:57:52;16.90;44.00
43884;DHT22;29544;52.018;5.810;2023-02-28T13:00:22;16.90;44.00
43884;DHT22;29544;52.018;5.810;2023-02-28T13:09:02;17.00;44.00
43884;DHT22;29544;52.018;5.810;2023-02-28T13:11:38;17.00;44.00
43884;DHT22;29544;52.018;5.810;2023-02-28T13:14:16;17.10;44.00
43884;DHT22;29544;52.018;5.810;2023-02-28T13:19:34;17.10;44.00
43884;DHT22;29544;52.018;5.810;2023-02-28T13:22:01;17.10;44.00
43884;DHT22;29544;52.018;5.810;2023-02-28T13:24:51;17.10;44.00
43884;DHT22;29544;52.018;5.810;2023-02-28T13:27:39;17.10;44.00
43884;DHT22;29544;52.018;5.810;2023-02-28T13:33:28;17.10;44.00
43884;DHT22;29544;52.018;5.810;2023-02-28T13:36:21;17.10;44.00
43884;DHT22;29544;52.018;5.810;2023-02-28T13:38:56;17.10;43.90
43884;DHT22;29544;52.018;5.810;2023-02-28T13:46:38;17.10;43.80
43884;DHT22;29544;52.018;5.810;2023-02-28T13:49:28;17.10;43.80
43884;DHT22;29544;52.018;5.810;2023-02-28T13:52:02;17.10;43.80
43884;DHT22;29544;52.018;5.810;2023-02-28T13:54:54;17.00;43.80
43884;DHT22;29544;52.018;5.810;2023-02-28T13:57:42;17.00;43.70
43884;DHT22;29544;52.018;5.810;2023-02-28T14:06:32;17.00;43.70
43884;DHT22;29544;52.018;5.810;2023-02-28T14:11:39;17.00;43.70
43884;DHT22;29544;52.018;5.810;2023-02-28T14:14:07;17.00;43.70
43884;DHT22;29544;52.018;5.810;2023-02-28T14:16:47;17.10;43.70
43884;DHT22;29544;52.018;5.810;2023-02-28T14:19:22;17.00;43.70
43884;DHT22;29544;52.018;5.810;2023-02-28T14:24:51;17.10;43.80
43884;DHT22;29544;52.018;5.810;2023-02-28T14:30:29;17.10;43.80
43884;DHT22;29544;52.018;5.810;2023-02-28T14:35:58;17.10;43.80
43884;DHT22;29544;52.018;5.810;2023-02-28T14:38:29;17.10;43.70
43884;DHT22;29544;52.018;5.810;2023-02-28T14:40:58;17.10;43.70
43884;DHT22;29544;52.018;5.810;2023-02-28T14:43:27;17.10;43.70
43884;DHT22;29544;52.018;5.810;2023-02-28T14:45:57;17.10;43.60
43884;DHT22;29544;52.018;5.810;2023-02-28T14:48:24;17.10;43.60
43884;DHT22;29544;52.018;5.810;2023-02-28T14:50:54;17.10;43.60
43884;DHT22;29544;52.018;5.810;2023-02-28T14:53:22;17.10;43.60
43884;DHT22;29544;52.018;5.810;2023-02-28T14:55:49;17.10;43.70
43884;DHT22;29544;52.018;5.810;2023-02-28T14:58:23;17.10;43.70
43884;DHT22;29544;52.018;5.810;2023-02-28T15:00:50;17.10;43.70
43884;DHT22;29544;52.018;5.810;2023-02-28T15:03:38;17.10;43.70
43884;DHT22;29544;52.018;5.810;2023-02-28T15:06:12;17.20;43.70
43884;DHT22;29544;52.018;5.810;2023-02-28T15:08:38;17.20;43.70
43884;DHT22;29544;52.018;5.810;2023-02-28T15:11:11;17.20;43.70
43884;DHT22;29544;52.018;5.810;2023-02-28T15:13:46;17.20;43.60
43884;DHT22;29544;52.018;5.810;2023-02-28T15:18:50;17.30;43.70
43884;DHT22;29544;52.018;5.810;2023-02-28T15:21:23;17.20;43.50
43884;DHT22;29544;52.018;5.810;2023-02-28T15:24:02;17.30;43.60
43884;DHT22;29544;52.018;5.810;2023-02-28T15:26:42;17.30;43.60
43884;DHT22;29544;52.018;5.810;2023-02-28T15:29:15;17.30;43.50
43884;DHT22;29544;52.018;5.810;2023-02-28T15:34:36;17.30;43.40
43884;DHT22;29544;52.018;5.810;2023-02-28T15:37:24;17.30;43.40
43884;DHT22;29544;52.018;5.810;2023-02-28T15:39:52;17.30;43.30
43884;DHT22;29544;52.018;5.810;2023-02-28T15:42:20;17.30;43.20
43884;DHT22;29544;52.018;5.810;2023-02-28T15:44:46;17.40;43.30
43884;DHT22;29544;52.018;5.810;2023-02-28T15:47:18;17.40;43.30
43884;DHT22;29544;52.018;5.810;2023-02-28T15:55:10;17.40;43.10
43884;DHT22;29544;52.018;5.810;2023-02-28T15:57:39;17.40;43.10
43884;DHT22;29544;52.018;5.810;2023-02-28T16:00:11;17.40;43.10
43884;DHT22;29544;52.018;5.810;2023-02-28T16:02:38;17.30;43.00
43884;DHT22;29544;52.018;5.810;2023-02-28T16:07:37;17.30;42.90
43884;DHT22;29544;52.018;5.810;2023-02-28T16:10:04;17.30;42.70
43884;DHT22;29544;52.018;5.810;2023-02-28T16:12:30;17.30;42.70
43884;DHT22;29544;52.018;5.810;2023-02-28T16:14:58;17.30;42.70
43884;DHT22;29544;52.018;5.810;2023-02-28T16:17:28;17.20;42.60
43884;DHT22;29544;52.018;5.810;2023-02-28T16:19:55;17.20;42.60
43884;DHT22;29544;52.018;5.810;2023-02-28T16:22:21;17.20;42.60
43884;DHT22;29544;52.018;5.810;2023-02-28T16:24:47;17.20;42.60
43884;DHT22;29544;52.018;5.810;2023-02-28T16:27:17;17.20;42.60
43884;DHT22;29544;52.018;5.810;2023-02-28T16:29:44;17.10;42.60
43884;DHT22;29544;52.018;5.810;2023-02-28T16:32:11;17.10;42.60
43884;DHT22;29544;52.018;5.810;2023-02-28T16:34:37;17.10;42.60
43884;DHT22;29544;52.018;5.810;2023-02-28T16:37:09;17.00;42.60
43884;DHT22;29544;52.018;5.810;2023-02-28T16:39:35;17.00;42.50
43884;DHT22;29544;52.018;5.810;2023-02-28T16:42:01;17.00;42.60
43884;DHT22;29544;52.018;5.810;2023-02-28T16:44:32;17.00;42.50
43884;DHT22;29544;52.018;5.810;2023-02-28T16:47:03;16.90;42.50
43884;DHT22;29544;52.018;5.810;2023-02-28T16:49:29;16.90;42.50
43884;DHT22;29544;52.018;5.810;2023-02-28T16:51:55;16.90;42.50
43884;DHT22;29544;52.018;5.810;2023-02-28T16:54:21;16.90;42.40
43884;DHT22;29544;52.018;5.810;2023-02-28T16:56:48;16.80;42.40
43884;DHT22;29544;52.018;5.810;2023-02-28T16:59:17;16.80;42.50
43884;DHT22;29544;52.018;5.810;2023-02-28T17:01:43;16.80;42.60
43884;DHT22;29544;52.018;5.810;2023-02-28T17:04:10;16.80;42.70
43884;DHT22;29544;52.018;5.810;2023-02-28T17:06:36;16.80;42.70
43884;DHT22;29544;52.018;5.810;2023-02-28T17:09:02;16.80;42.80
43884;DHT22;29544;52.018;5.810;2023-02-28T17:11:27;16.90;42.90
43884;DHT22;29544;52.018;5.810;2023-02-28T17:13:53;16.90;42.80
43884;DHT22;29544;52.018;5.810;2023-02-28T17:16:28;17.00;43.20
43884;DHT22;29544;52.018;5.810;2023-02-28T17:18:56;17.00;43.20
43884;DHT22;29544;52.018;5.810;2023-02-28T17:21:22;17.10;42.90
43884;DHT22;29544;52.018;5.810;2023-02-28T17:23:48;17.20;43.30
43884;DHT22;29544;52.018;5.810;2023-02-28T17:26:16;17.30;43.00
43884;DHT22;29544;52.018;5.810;2023-02-28T17:28:43;17.40;43.10
43884;DHT22;29544;52.018;5.810;2023-02-28T17:31:09;17.40;43.20
43884;DHT22;29544;52.018;5.810;2023-02-28T17:33:35;17.50;43.10
43884;DHT22;29544;52.018;5.810;2023-02-28T17:36:00;17.60;43.00
43884;DHT22;29544;52.018;5.810;2023-02-28T17:38:26;17.70;42.60
43884;DHT22;29544;52.018;5.810;2023-02-28T17:40:52;17.80;42.80
43884;DHT22;29544;52.018;5.810;2023-02-28T17:43:23;17.90;42.50
43884;DHT22;29544;52.018;5.810;2023-02-28T17:45:48;17.90;42.50
43884;DHT22;29544;52.018;5.810;2023-02-28T17:48:14;18.00;42.50